Time;durP1;ratioP1;P1;durP2;ratioP2;P2;SDS_P1;SDS_P2;PMS_P1;PMS_P2;Temp;Humidity;BMP_temperature;BMP_pressure;BME280_temperature;BME280_humidity;BME280_pressure;Samples;Min_cycle;Max_cycle;Signal;HPM_P1;HPM_P2
2021/08/29 00:00:30;;;;;;;1.50;1.40;;;16.20;43.50;;;;;;10441566;28;20596;-77
2021/08/29 00:05:34;;;;;;;2.80;1.70;;;16.30;43.40;;;;;;10442890;28;20614;-77
2021/08/29 00:10:39;;;;;;;1.60;1.50;;;16.30;43.30;;;;;;10448292;28;20224;-77
2021/08/29 00:15:42;;;;;;;1.77;1.67;;;16.30;43.50;;;;;;10444943;28;20233;-77
2021/08/29 00:20:46;;;;;;;1.93;1.70;;;16.30;43.30;;;;;;10444343;28;20282;-77
2021/08/29 00:25:51;;;;;;;1.70;1.60;;;16.20;43.20;;;;;;10447394;28;20228;-77
2021/08/29 00:30:54;;;;;;;1.83;1.73;;;16.20;43.70;;;;;;10445984;28;20225;-77
2021/08/29 00:35:58;;;;;;;2.20;1.57;;;16.20;43.40;;;;;;10443382;28;20229;-77
2021/08/29 00:41:06;;;;;;;1.73;1.63;;;16.20;43.60;;;;;;10446867;28;20671;-77
2021/08/29 00:46:09;;;;;;;2.27;1.77;;;16.20;43.80;;;;;;10446606;28;20233;-77
2021/08/29 00:51:14;;;;;;;2.00;1.77;;;16.10;43.70;;;;;;10446632;28;20249;-76
2021/08/29 00:56:19;;;;;;;1.80;1.70;;;16.20;44.00;;;;;;10446096;28;20236;-77
2021/08/29 01:01:29;;;;;;;1.87;1.77;;;16.20;44.10;;;;;;10442149;28;20233;-77
2021/08/29 01:06:39;;;;;;;2.20;2.10;;;16.20;44.10;;;;;;10445838;28;20840;-77
2021/08/29 01:11:47;;;;;;;2.07;1.93;;;16.10;44.30;;;;;;10445148;28;20217;-77
2021/08/29 01:16:53;;;;;;;2.40;2.17;;;16.10;44.50;;;;;;10442073;28;20595;-77
2021/08/29 01:21:58;;;;;;;2.83;2.40;;;16.00;44.30;;;;;;10439890;28;20233;-77
2021/08/29 01:27:11;;;;;;;2.40;2.30;;;16.00;44.10;;;;;;10441184;28;20779;-77
2021/08/29 01:32:16;;;;;;;2.80;2.60;;;15.90;45.10;;;;;;10441500;28;20591;-77
2021/08/29 01:37:20;;;;;;;2.67;2.47;;;15.90;45.10;;;;;;10440759;28;20225;-77
2021/08/29 01:42:23;;;;;;;2.93;2.73;;;15.80;44.90;;;;;;10441423;28;20812;-77
2021/08/29 01:47:28;;;;;;;3.13;2.70;;;15.80;44.90;;;;;;10444396;28;20225;-77
2021/08/29 01:52:31;;;;;;;3.20;2.90;;;15.80;45.00;;;;;;10442261;28;20717;-77
2021/08/29 01:57:34;;;;;;;2.80;2.53;;;15.80;44.90;;;;;;10444168;28;20225;-77
2021/08/29 02:02:41;;;;;;;2.70;2.57;;;15.80;45.00;;;;;;10441157;28;20380;-77
2021/08/29 02:07:49;;;;;;;2.73;2.53;;;15.80;45.00;;;;;;10440814;28;20252;-77
2021/08/29 02:12:58;;;;;;;2.77;2.57;;;15.80;45.00;;;;;;10442905;28;20267;-77
2021/08/29 02:18:07;;;;;;;2.80;2.63;;;15.80;45.00;;;;;;10440808;28;20235;-77
2021/08/29 02:23:10;;;;;;;2.50;2.40;;;15.80;45.00;;;;;;10441218;28;20251;-77
2021/08/29 02:28:14;;;;;;;3.00;2.80;;;15.80;45.00;;;;;;10440387;28;20236;-77
2021/08/29 02:33:19;;;;;;;2.53;2.33;;;15.80;45.00;;;;;;10441039;28;20231;-77
2021/08/29 02:38:23;;;;;;;3.17;2.97;;;15.80;45.00;;;;;;10438694;28;20229;-76
2021/08/29 02:43:27;;;;;;;2.90;2.70;;;15.70;45.00;;;;;;10439423;28;21054;-77
2021/08/29 02:48:32;;;;;;;4.07;3.67;;;15.70;45.10;;;;;;10440268;28;20244;-76
2021/08/29 02:53:35;;;;;;;3.83;3.57;;;15.70;45.00;;;;;;10440364;28;20229;-77
2021/08/29 02:58:39;;;;;;;3.93;3.63;;;15.60;44.90;;;;;;10439167;28;20229;-77
2021/08/29 03:03:44;;;;;;;4.20;3.80;;;15.60;44.90;;;;;;10437116;28;20239;-76
2021/08/29 03:08:48;;;;;;;4.00;3.70;;;15.60;45.20;;;;;;10441662;28;20224;-77
2021/08/29 03:13:52;;;;;;;4.37;4.07;;;15.60;44.90;;;;;;10435751;28;20233;-77
2021/08/29 03:18:58;;;;;;;4.27;3.97;;;15.60;45.10;;;;;;10438874;28;20831;-77
2021/08/29 03:24:02;;;;;;;4.90;3.90;;;15.50;45.50;;;;;;10433675;28;20649;-77
2021/08/29 03:29:05;;;;;;;4.67;4.27;;;15.50;45.10;;;;;;10440408;28;20719;-77
2021/08/29 03:34:14;;;;;;;4.27;3.97;;;15.50;45.30;;;;;;10440599;28;20235;-77
2021/08/29 03:39:17;;;;;;;4.73;4.40;;;15.50;46.00;;;;;;10442033;28;20232;-76
2021/08/29 03:44:21;;;;;;;4.43;4.03;;;15.50;45.30;;;;;;10432623;28;20225;-77
2021/08/29 03:49:26;;;;;;;4.60;4.17;;;15.50;45.40;;;;;;10440766;28;20583;-77
2021/08/29 03:54:29;;;;;;;4.83;4.53;;;15.50;45.90;;;;;;10436748;28;20227;-77
2021/08/29 03:59:33;;;;;;;4.83;4.43;;;15.50;45.50;;;;;;10440961;28;20224;-77
2021/08/29 04:04:38;;;;;;;5.27;4.83;;;15.50;45.70;;;;;;10441340;28;20274;-76
2021/08/29 04:09:41;;;;;;;5.70;5.30;;;15.50;46.10;;;;;;10438000;28;20224;-77
2021/08/29 04:14:46;;;;;;;6.27;5.77;;;15.50;45.80;;;;;;10440224;28;20231;-76
2021/08/29 04:19:52;;;;;;;6.50;6.00;;;15.50;46.20;;;;;;10433924;28;20228;-77
2021/08/29 04:24:56;;;;;;;5.97;5.53;;;15.50;46.60;;;;;;10442837;28;20336;-77
2021/08/29 04:30:00;;;;;;;6.70;6.20;;;15.60;46.20;;;;;;10446321;28;20250;-76
2021/08/29 04:35:06;;;;;;;7.27;6.67;;;15.60;46.40;;;;;;10446667;28;20247;-77
2021/08/29 04:40:10;;;;;;;7.37;6.77;;;15.60;46.90;;;;;;10445876;28;20225;-76
2021/08/29 04:45:13;;;;;;;7.83;7.13;;;15.60;46.60;;;;;;10440701;28;20697;-77
2021/08/29 04:50:18;;;;;;;7.43;6.73;;;15.70;46.50;;;;;;10442120;28;20611;-76
2021/08/29 04:55:21;;;;;;;7.87;7.17;;;15.70;47.00;;;;;;10443739;28;20252;-77
2021/08/29 05:00:24;;;;;;;7.80;7.20;;;15.80;46.70;;;;;;10444322;28;20667;-77
2021/08/29 05:05:29;;;;;;;7.60;7.00;;;15.80;46.70;;;;;;10446204;28;20426;-77
2021/08/29 05:10:32;;;;;;;7.97;7.37;;;15.90;47.10;;;;;;10444904;28;20227;-77
2021/08/29 05:15:36;;;;;;;7.63;6.97;;;16.00;46.70;;;;;;10441437;28;20225;-77
2021/08/29 05:20:41;;;;;;;7.50;6.83;;;16.00;46.80;;;;;;10445664;28;20232;-77
2021/08/29 05:26:04;;;;;;;7.53;6.93;;;16.10;47.10;;;;;;10442814;28;20232;-77
2021/08/29 05:31:07;;;;;;;9.17;6.90;;;16.20;46.90;;;;;;10440739;28;20308;-77
2021/08/29 05:36:12;;;;;;;8.17;7.47;;;16.20;46.70;;;;;;10438924;28;20283;-77
2021/08/29 05:41:15;;;;;;;9.33;8.53;;;16.30;47.30;;;;;;10442047;28;20589;-77
2021/08/29 05:46:18;;;;;;;8.70;7.90;;;16.30;46.80;;;;;;10444892;28;20227;-77
2021/08/29 05:51:23;;;;;;;8.37;7.57;;;16.40;46.80;;;;;;10438427;28;20236;-77
2021/08/29 05:56:26;;;;;;;8.50;7.80;;;16.40;47.00;;;;;;10435629;28;20229;-77
2021/08/29 06:01:29;;;;;;;8.47;7.77;;;16.50;46.80;;;;;;10442920;28;20232;-76
2021/08/29 06:06:34;;;;;;;7.50;6.80;;;16.50;46.70;;;;;;10441931;28;20229;-77
2021/08/29 06:11:37;;;;;;;9.00;8.27;;;16.60;47.10;;;;;;10439285;28;20224;-77
2021/08/29 06:16:41;;;;;;;7.37;6.77;;;16.60;46.70;;;;;;10441862;28;20232;-77
2021/08/29 06:21:45;;;;;;;8.20;7.50;;;16.70;46.70;;;;;;10440363;28;20860;-76
2021/08/29 06:26:48;;;;;;;8.90;8.13;;;16.70;47.00;;;;;;10443134;28;20224;-77
2021/08/29 06:31:52;;;;;;;7.67;7.07;;;16.80;46.70;;;;;;10439759;28;20232;-77
2021/08/29 06:36:56;;;;;;;8.37;7.77;;;16.80;46.90;;;;;;10442797;28;20228;-77
2021/08/29 06:42:00;;;;;;;8.33;7.63;;;16.80;47.20;;;;;;10439785;28;20229;-77
2021/08/29 06:47:03;;;;;;;8.10;7.40;;;16.90;46.90;;;;;;10441807;28;20221;-77
2021/08/29 06:52:08;;;;;;;7.90;7.20;;;16.80;46.60;;;;;;10439618;28;20233;-77
2021/08/29 06:57:12;;;;;;;7.80;7.20;;;16.90;47.30;;;;;;10441778;28;20244;-77
2021/08/29 07:02:15;;;;;;;8.07;7.33;;;16.90;46.80;;;;;;10441680;28;20237;-77
2021/08/29 07:07:20;;;;;;;8.70;7.77;;;16.90;46.70;;;;;;10441366;28;20228;-77
2021/08/29 07:12:23;;;;;;;8.43;7.77;;;16.90;46.90;;;;;;10437830;28;20247;-77
2021/08/29 07:17:26;;;;;;;8.43;7.63;;;17.00;46.90;;;;;;10441740;28;20229;-77
2021/08/29 07:22:31;;;;;;;7.43;6.83;;;16.90;46.90;;;;;;10439401;28;20251;-77
2021/08/29 07:27:34;;;;;;;7.40;6.80;;;17.00;47.40;;;;;;10435603;28;20801;-75
2021/08/29 07:32:37;;;;;;;8.17;7.47;;;17.00;46.90;;;;;;10439988;28;20236;-76
2021/08/29 07:37:43;;;;;;;8.03;7.33;;;17.10;47.00;;;;;;10440008;28;20228;-77
2021/08/29 07:42:46;;;;;;;8.50;7.80;;;17.10;47.30;;;;;;10437311;28;20255;-76
2021/08/29 07:47:52;;;;;;;7.53;6.80;;;17.20;47.00;;;;;;10438335;28;20256;-77
2021/08/29 07:52:57;;;;;;;7.27;6.67;;;17.20;47.00;;;;;;10439959;28;20232;-76
2021/08/29 07:58:01;;;;;;;7.70;7.10;;;17.20;47.20;;;;;;10439602;28;20263;-76
2021/08/29 08:03:04;;;;;;;7.50;6.90;;;17.30;47.20;;;;;;10444500;28;20221;-77
2021/08/29 08:08:09;;;;;;;7.17;6.57;;;17.40;47.30;;;;;;10445146;28;20236;-76
2021/08/29 08:13:12;;;;;;;6.57;6.07;;;17.40;48.00;;;;;;10446473;28;20247;-76
2021/08/29 08:18:15;;;;;;;7.10;6.40;;;17.60;48.10;;;;;;10448372;28;20235;-77
2021/08/29 08:23:20;;;;;;;6.40;5.90;;;17.70;47.40;;;;;;10443589;28;20868;-76
2021/08/29 08:28:23;;;;;;;3.67;3.37;;;17.90;47.60;;;;;;10446297;28;20228;-76
2021/08/29 08:33:27;;;;;;;3.20;3.00;;;17.90;46.90;;;;;;10441686;28;20233;-77
2021/08/29 08:38:31;;;;;;;3.03;2.83;;;18.00;47.00;;;;;;10447252;28;20235;-76
2021/08/29 08:43:35;;;;;;;3.60;3.30;;;18.00;47.00;;;;;;10441358;28;20451;-76
2021/08/29 08:48:42;;;;;;;3.53;3.33;;;18.00;47.00;;;;;;10445106;28;20279;-76
2021/08/29 08:53:48;;;;;;;4.00;3.70;;;17.90;46.90;;;;;;10443858;28;20229;-76
2021/08/29 08:58:56;;;;;;;3.90;3.60;;;17.80;46.80;;;;;;10446466;28;20225;-75
2021/08/29 09:04:00;;;;;;;3.53;3.33;;;17.70;46.70;;;;;;10445897;28;20308;-76
2021/08/29 09:09:04;;;;;;;3.57;3.27;;;17.70;46.70;;;;;;10446475;28;20228;-76
2021/08/29 09:14:15;;;;;;;3.70;3.40;;;17.60;47.00;;;;;;10438763;28;20257;-76
2021/08/29 09:19:19;;;;;;;3.50;3.30;;;17.50;47.40;;;;;;10440346;28;20235;-76
2021/08/29 09:24:30;;;;;;;3.17;2.97;;;17.50;47.80;;;;;;10443595;28;20237;-76
2021/08/29 09:29:39;;;;;;;3.10;2.90;;;17.60;48.80;;;;;;10441068;28;20244;-76
2021/08/29 09:34:56;;;;;;;3.13;2.93;;;17.60;47.90;;;;;;10444216;28;20221;-76
2021/08/29 09:40:15;;;;;;;3.00;2.80;;;17.70;48.40;;;;;;10443524;28;20236;-76
2021/08/29 09:45:29;;;;;;;2.73;2.57;;;17.80;49.20;;;;;;10446046;28;20248;-76
2021/08/29 09:50:34;;;;;;;2.90;2.70;;;17.90;49.40;;;;;;10446002;28;20233;-76
2021/08/29 09:55:40;;;;;;;2.63;2.43;;;18.10;48.70;;;;;;10446591;28;20264;-77
2021/08/29 10:01:02;;;;;;;2.13;2.03;;;18.30;47.50;;;;;;10447312;28;20216;-77
2021/08/29 10:06:21;;;;;;;2.27;2.17;;;18.40;47.30;;;;;;10445086;28;20310;-76
2021/08/29 10:11:29;;;;;;;2.40;2.30;;;18.50;48.10;;;;;;10439720;28;20240;-76
2021/08/29 10:16:33;;;;;;;2.40;2.30;;;18.60;47.50;;;;;;10442006;28;20232;-77
2021/08/29 10:21:37;;;;;;;2.13;2.03;;;18.70;47.60;;;;;;10444328;28;20311;-76
2021/08/29 10:26:43;;;;;;;2.10;2.00;;;18.70;47.50;;;;;;10442966;28;20237;-78
2021/08/29 10:31:53;;;;;;;1.93;1.83;;;18.80;46.70;;;;;;10445549;28;20304;-77
2021/08/29 10:36:57;;;;;;;1.83;1.73;;;18.80;46.70;;;;;;10443707;28;20236;-77
2021/08/29 10:42:03;;;;;;;1.80;1.70;;;18.80;47.70;;;;;;10434126;28;20311;-77
2021/08/29 10:47:08;;;;;;;2.00;1.90;;;18.90;47.00;;;;;;10441228;28;20220;-77
2021/08/29 10:52:11;;;;;;;2.00;1.90;;;19.00;46.40;;;;;;10443765;28;20724;-77
2021/08/29 10:57:33;;;;;;;2.20;2.03;;;19.10;46.20;;;;;;10441349;28;20229;-77
2021/08/29 11:02:41;;;;;;;2.37;1.80;;;19.10;45.60;;;;;;10441199;28;20235;-77
2021/08/29 11:07:51;;;;;;;2.07;1.97;;;19.20;45.30;;;;;;10436882;28;20604;-77
2021/08/29 11:12:56;;;;;;;3.23;2.93;;;19.30;45.40;;;;;;10442596;28;20294;-77
2021/08/29 11:18:05;;;;;;;2.80;2.60;;;19.30;45.80;;;;;;10437733;28;20224;-76
2021/08/29 11:23:09;;;;;;;2.83;2.63;;;19.20;45.70;;;;;;10441505;28;20854;-76
2021/08/29 11:28:31;;;;;;;2.33;2.17;;;19.20;45.80;;;;;;10437548;28;20237;-76
2021/08/29 11:33:35;;;;;;;2.17;2.07;;;19.20;45.40;;;;;;10445685;28;20228;-76
2021/08/29 11:38:39;;;;;;;2.43;2.33;;;19.20;45.60;;;;;;10449857;28;20229;-76
2021/08/29 11:43:45;;;;;;;2.10;2.00;;;19.10;45.60;;;;;;10448587;28;20237;-75
2021/08/29 11:48:58;;;;;;;1.90;1.80;;;19.20;45.90;;;;;;10446671;28;20324;-76
2021/08/29 11:54:03;;;;;;;1.37;1.37;;;19.20;46.40;;;;;;10440147;28;20227;-76
2021/08/29 11:59:08;;;;;;;1.23;1.10;;;19.20;45.80;;;;;;10448178;28;20704;-76
2021/08/29 12:04:20;;;;;;;1.53;1.27;;;19.30;45.20;;;;;;10445813;28;20228;-76
2021/08/29 12:09:27;;;;;;;1.30;1.20;;;19.40;45.90;;;;;;10446359;28;20241;-76
2021/08/29 12:14:31;;;;;;;0.90;0.90;;;19.50;44.50;;;;;;10443017;28;20750;-76
2021/08/29 12:19:36;;;;;;;0.90;0.90;;;19.60;44.30;;;;;;10445247;28;20239;-76
2021/08/29 12:24:41;;;;;;;1.23;1.13;;;19.70;44.00;;;;;;10438306;28;20744;-76
2021/08/29 12:29:47;;;;;;;1.00;1.00;;;19.80;44.30;;;;;;10446420;28;20225;-76
2021/08/29 12:34:52;;;;;;;1.00;1.00;;;19.90;44.00;;;;;;10443418;28;20224;-76
2021/08/29 12:39:57;;;;;;;1.10;1.10;;;20.00;43.80;;;;;;10437479;28;20228;-77
2021/08/29 12:45:09;;;;;;;0.90;0.90;;;20.10;43.50;;;;;;10439997;28;20221;-76
2021/08/29 12:50:16;;;;;;;0.80;0.80;;;20.20;43.60;;;;;;10438463;28;20217;-77
2021/08/29 12:55:21;;;;;;;0.93;0.93;;;20.20;42.80;;;;;;10443572;28;20499;-77
2021/08/29 13:00:36;;;;;;;1.10;1.10;;;20.30;43.10;;;;;;10442522;28;20225;-77
2021/08/29 13:05:41;;;;;;;1.00;1.00;;;20.40;41.90;;;;;;10441992;28;20239;-77
2021/08/29 13:11:00;;;;;;;1.17;1.17;;;20.40;42.20;;;;;;10440065;28;20232;-76
2021/08/29 13:16:06;;;;;;;1.13;1.03;;;20.40;42.30;;;;;;10441359;28;20231;-77
2021/08/29 13:21:24;;;;;;;1.07;1.07;;;20.20;42.20;;;;;;10443083;28;21032;-76
2021/08/29 13:26:27;;;;;;;1.90;0.90;;;20.00;41.60;;;;;;10442675;28;20231;-76
2021/08/29 13:31:34;;;;;;;1.00;1.00;;;19.80;42.70;;;;;;10401682;28;1142478;-76
2021/08/29 13:36:44;;;;;;;1.00;1.00;;;19.60;43.20;;;;;;10443499;28;20267;-75
2021/08/29 13:41:47;;;;;;;1.17;1.17;;;19.60;43.50;;;;;;10440484;28;20980;-75
2021/08/29 13:47:05;;;;;;;1.20;1.10;;;19.60;44.00;;;;;;10442838;28;20236;-75
2021/08/29 13:52:08;;;;;;;1.17;1.17;;;19.70;43.80;;;;;;10440628;28;20231;-75
2021/08/29 13:57:11;;;;;;;1.20;1.10;;;19.90;44.40;;;;;;10441971;28;20225;-76
2021/08/29 14:02:16;;;;;;;1.00;1.00;;;20.00;44.50;;;;;;10440497;28;20229;-75
2021/08/29 14:07:19;;;;;;;1.30;1.20;;;20.10;44.20;;;;;;10440160;28;20316;-75
2021/08/29 14:12:23;;;;;;;1.43;1.33;;;20.20;43.90;;;;;;10437752;28;20302;-75
2021/08/29 14:17:27;;;;;;;1.23;1.20;;;20.20;43.80;;;;;;10440767;28;20717;-75
2021/08/29 14:22:31;;;;;;;1.37;1.27;;;20.20;44.10;;;;;;10441401;28;20229;-75
2021/08/29 14:27:34;;;;;;;1.40;1.30;;;20.30;43.70;;;;;;10438345;28;20272;-76
2021/08/29 14:32:38;;;;;;;1.80;1.70;;;20.30;43.40;;;;;;10438224;28;20228;-76
2021/08/29 14:37:42;;;;;;;2.03;1.50;;;20.40;43.40;;;;;;10440067;28;20221;-76
2021/08/29 14:42:46;;;;;;;1.20;1.20;;;20.30;43.30;;;;;;10438194;28;20640;-76
2021/08/29 14:47:51;;;;;;;1.07;1.03;;;20.30;43.50;;;;;;10440816;28;20236;-76
2021/08/29 14:52:54;;;;;;;1.33;1.23;;;20.30;43.80;;;;;;10439222;28;20233;-76
2021/08/29 14:57:58;;;;;;;1.00;1.00;;;20.30;43.50;;;;;;10442149;28;20683;-77
2021/08/29 15:03:03;;;;;;;2.50;1.30;;;20.30;43.50;;;;;;10441012;28;20220;-76
2021/08/29 15:08:07;;;;;;;1.10;1.10;;;20.30;43.70;;;;;;10438192;28;20221;-76
2021/08/29 15:13:11;;;;;;;1.00;1.00;;;20.20;43.60;;;;;;10440110;28;21195;-76
2021/08/29 15:18:15;;;;;;;1.60;1.50;;;20.20;43.80;;;;;;10437886;28;20225;-76
2021/08/29 15:23:18;;;;;;;2.03;1.90;;;20.20;43.80;;;;;;10439236;28;20225;-76
2021/08/29 15:28:21;;;;;;;4.23;2.97;;;20.20;43.80;;;;;;10436044;28;20244;-76
2021/08/29 15:33:27;;;;;;;2.43;2.23;;;20.20;44.00;;;;;;10438679;28;20239;-76
2021/08/29 15:38:32;;;;;;;1.50;1.40;;;20.20;44.20;;;;;;10440709;28;20579;-76
2021/08/29 15:43:35;;;;;;;1.57;1.47;;;20.10;44.20;;;;;;10437378;28;20229;-76
2021/08/29 15:48:40;;;;;;;1.53;1.43;;;20.10;44.10;;;;;;10439225;28;21903;-76
2021/08/29 15:53:43;;;;;;;1.43;1.33;;;20.00;44.30;;;;;;10437869;28;20228;-76
2021/08/29 15:58:47;;;;;;;1.47;1.30;;;20.00;44.30;;;;;;10440320;28;20227;-76
2021/08/29 16:03:51;;;;;;;1.30;1.30;;;19.90;44.40;;;;;;10439728;28;20221;-76
2021/08/29 16:08:55;;;;;;;1.53;1.43;;;19.90;44.70;;;;;;10441591;28;20248;-75
2021/08/29 16:13:58;;;;;;;1.60;1.50;;;19.90;44.70;;;;;;10442077;28;20771;-75
2021/08/29 16:19:03;;;;;;;1.60;1.50;;;19.90;44.90;;;;;;10440887;28;20613;-76
2021/08/29 16:24:06;;;;;;;2.40;1.40;;;19.90;44.70;;;;;;10446625;28;20225;-76
2021/08/29 16:29:09;;;;;;;1.60;1.47;;;19.90;44.30;;;;;;10429617;28;20225;-76
2021/08/29 16:34:14;;;;;;;1.30;1.20;;;19.90;44.30;;;;;;10402094;28;20228;-77
2021/08/29 16:39:17;;;;;;;1.30;1.20;;;19.90;44.50;;;;;;10406638;28;20347;-76
2021/08/29 16:44:20;;;;;;;2.13;1.20;;;20.00;44.50;;;;;;10420249;28;20231;-76
2021/08/29 16:49:25;;;;;;;1.23;1.20;;;20.00;44.40;;;;;;10445043;28;20317;-76
2021/08/29 16:54:28;;;;;;;1.53;1.43;;;19.90;44.20;;;;;;10440885;28;20229;-76
2021/08/29 16:59:31;;;;;;;1.20;1.20;;;19.90;44.30;;;;;;10431862;28;20236;-76
2021/08/29 17:04:36;;;;;;;2.47;2.37;;;19.90;44.40;;;;;;10438524;28;20225;-76
2021/08/29 17:09:39;;;;;;;2.50;2.30;;;19.90;44.30;;;;;;10435114;28;20225;-76
2021/08/29 17:14:43;;;;;;;3.00;2.67;;;19.90;44.20;;;;;;10443102;28;20717;-76
2021/08/29 17:19:48;;;;;;;1.53;1.43;;;19.80;44.30;;;;;;10443056;28;20306;-76
2021/08/29 17:24:51;;;;;;;1.50;1.40;;;19.80;44.30;;;;;;10444376;28;21047;-75
2021/08/29 17:29:54;;;;;;;1.63;1.53;;;19.70;44.30;;;;;;10444068;28;20276;-76
2021/08/29 17:34:59;;;;;;;1.50;1.40;;;19.80;44.50;;;;;;10429194;28;20231;-76
2021/08/29 17:40:03;;;;;;;1.50;1.40;;;19.80;44.60;;;;;;10445229;28;20241;-75
2021/08/29 17:45:07;;;;;;;1.70;1.60;;;19.70;44.60;;;;;;10435206;28;20233;-75
2021/08/29 17:50:12;;;;;;;2.93;2.63;;;19.70;44.60;;;;;;10442343;28;20228;-76
2021/08/29 17:55:15;;;;;;;2.20;2.00;;;19.70;44.80;;;;;;10444002;28;20601;-75
2021/08/29 18:00:19;;;;;;;1.70;1.60;;;19.60;44.80;;;;;;10442398;28;20689;-76
2021/08/29 18:05:26;;;;;;;1.50;1.47;;;19.70;45.00;;;;;;10440367;28;20237;-76
2021/08/29 18:10:30;;;;;;;1.70;1.60;;;19.60;45.20;;;;;;10435325;28;20217;-76
2021/08/29 18:15:33;;;;;;;2.27;2.10;;;19.60;44.90;;;;;;10443165;28;20873;-76
2021/08/29 18:20:38;;;;;;;2.27;1.80;;;19.60;45.10;;;;;;10441615;28;20225;-76
2021/08/29 18:25:41;;;;;;;1.90;1.80;;;19.60;45.50;;;;;;10444676;28;20263;-76
2021/08/29 18:30:45;;;;;;;3.03;2.00;;;19.60;45.20;;;;;;10443604;28;20221;-76
2021/08/29 18:35:49;;;;;;;1.83;1.73;;;19.60;44.80;;;;;;10441944;28;20235;-77
2021/08/29 18:40:52;;;;;;;2.00;1.90;;;19.50;44.90;;;;;;10440669;28;20225;-77
2021/08/29 18:45:56;;;;;;;1.80;1.70;;;19.40;44.70;;;;;;10436224;28;20264;-76
2021/08/29 18:51:01;;;;;;;1.80;1.70;;;19.30;44.70;;;;;;10444569;28;20229;-76
2021/08/29 18:56:05;;;;;;;1.90;1.80;;;19.20;45.20;;;;;;10442191;28;20232;-75
2021/08/29 19:01:09;;;;;;;1.70;1.60;;;19.10;45.30;;;;;;10440875;28;20223;-75
2021/08/29 19:06:17;;;;;;;4.50;2.20;;;19.10;45.20;;;;;;10440666;28;20237;-76
2021/08/29 19:11:21;;;;;;;2.50;2.40;;;19.10;46.10;;;;;;10435007;28;20243;-76
2021/08/29 19:16:24;;;;;;;2.27;2.07;;;19.10;45.50;;;;;;10435944;28;21061;-76
2021/08/29 19:21:29;;;;;;;2.37;2.27;;;19.10;45.50;;;;;;10436176;28;20251;-76
2021/08/29 19:26:32;;;;;;;1.90;1.80;;;19.20;45.50;;;;;;10432336;28;20229;-76
2021/08/29 19:31:35;;;;;;;1.80;1.70;;;19.10;45.10;;;;;;10434505;28;20224;-77
2021/08/29 19:36:40;;;;;;;2.00;1.90;;;19.10;45.20;;;;;;10436560;28;20235;-76
2021/08/29 19:41:44;;;;;;;2.43;2.23;;;18.90;45.30;;;;;;10433337;28;20739;-76
2021/08/29 19:46:47;;;;;;;2.13;1.93;;;18.90;45.30;;;;;;10434651;28;20235;-77
2021/08/29 19:51:51;;;;;;;2.50;2.40;;;18.70;45.30;;;;;;10437182;28;20274;-75
2021/08/29 19:56:55;;;;;;;3.00;2.80;;;18.60;45.90;;;;;;10443372;28;20229;-76
2021/08/29 20:01:58;;;;;;;2.70;2.57;;;18.60;45.70;;;;;;10444182;28;20220;-76
2021/08/29 20:07:04;;;;;;;2.30;2.20;;;18.50;45.90;;;;;;10445711;28;20225;-75
2021/08/29 20:12:07;;;;;;;2.30;2.20;;;18.40;46.20;;;;;;10444589;28;20278;-75
2021/08/29 20:17:11;;;;;;;2.47;2.27;;;18.40;46.20;;;;;;10444573;28;20327;-75
2021/08/29 20:22:16;;;;;;;2.10;2.00;;;18.30;46.10;;;;;;10445287;28;20229;-75
2021/08/29 20:27:20;;;;;;;2.20;2.07;;;18.30;46.60;;;;;;10444672;28;20237;-75
2021/08/29 20:32:23;;;;;;;2.27;2.17;;;18.20;46.50;;;;;;10445665;28;20237;-75
2021/08/29 20:37:27;;;;;;;2.07;1.90;;;18.20;46.60;;;;;;10442751;28;20233;-75
2021/08/29 20:42:31;;;;;;;2.47;2.27;;;18.10;47.10;;;;;;10442295;28;20225;-75
2021/08/29 20:47:34;;;;;;;2.77;2.50;;;18.10;47.10;;;;;;10445641;28;20224;-75
2021/08/29 20:52:38;;;;;;;2.10;2.00;;;18.10;47.10;;;;;;10444035;28;20232;-75
2021/08/29 20:57:42;;;;;;;2.90;1.90;;;18.10;47.10;;;;;;10445656;28;20236;-75
2021/08/29 21:02:45;;;;;;;1.90;1.80;;;18.00;47.00;;;;;;10442877;28;20237;-75
2021/08/29 21:07:50;;;;;;;2.00;1.90;;;18.00;47.00;;;;;;10443759;28;20649;-75
2021/08/29 21:12:53;;;;;;;1.80;1.70;;;18.00;47.00;;;;;;10440686;28;20338;-75
2021/08/29 21:17:56;;;;;;;2.03;1.93;;;18.00;47.70;;;;;;10443029;28;20592;-75
2021/08/29 21:23:01;;;;;;;2.40;2.20;;;18.00;47.00;;;;;;10442200;28;20721;-75
2021/08/29 21:28:07;;;;;;;1.70;1.60;;;18.00;47.00;;;;;;10443509;28;20221;-75
2021/08/29 21:33:11;;;;;;;1.70;1.60;;;18.00;47.00;;;;;;10442312;28;20347;-75
2021/08/29 21:38:16;;;;;;;1.37;1.20;;;18.00;47.00;;;;;;10443939;28;20258;-75
2021/08/29 21:43:19;;;;;;;1.27;1.10;;;17.90;46.90;;;;;;10443107;28;20677;-75
2021/08/29 21:48:25;;;;;;;1.57;1.10;;;17.90;46.90;;;;;;10443373;28;20231;-75
2021/08/29 21:53:30;;;;;;;1.03;1.00;;;17.80;46.80;;;;;;10442366;28;20233;-75
2021/08/29 21:58:34;;;;;;;1.23;0.87;;;17.80;47.30;;;;;;10443901;28;20655;-75
2021/08/29 22:03:38;;;;;;;3.53;1.10;;;17.80;46.80;;;;;;10442781;28;20311;-75
2021/08/29 22:08:42;;;;;;;1.10;1.10;;;17.80;47.30;;;;;;10439353;28;20312;-75
2021/08/29 22:13:46;;;;;;;1.30;1.20;;;17.80;47.80;;;;;;10443456;28;20224;-75
2021/08/29 22:18:50;;;;;;;1.93;1.20;;;17.80;47.40;;;;;;10441830;28;20221;-75
2021/08/29 22:23:54;;;;;;;1.00;1.00;;;17.80;47.60;;;;;;10442887;28;20227;-75
2021/08/29 22:28:57;;;;;;;1.03;1.03;;;17.80;47.90;;;;;;10439805;28;20236;-75
2021/08/29 22:34:01;;;;;;;1.23;1.20;;;17.80;47.50;;;;;;10441727;28;20582;-75
2021/08/29 22:39:05;;;;;;;1.40;1.30;;;17.80;47.80;;;;;;10442039;28;20288;-75
2021/08/29 22:44:08;;;;;;;1.47;1.30;;;17.80;48.40;;;;;;10439308;28;20229;-75
2021/08/29 22:49:11;;;;;;;1.07;1.07;;;17.90;48.10;;;;;;10441101;28;20225;-76
2021/08/29 22:54:16;;;;;;;0.80;0.80;;;17.90;47.80;;;;;;10438909;28;20628;-75
2021/08/29 22:59:19;;;;;;;0.80;0.80;;;17.90;48.20;;;;;;10440287;28;20225;-75
2021/08/29 23:04:22;;;;;;;1.00;0.90;;;17.90;47.70;;;;;;10439057;28;20265;-75
2021/08/29 23:09:27;;;;;;;0.93;0.93;;;17.90;47.70;;;;;;10438793;28;20232;-75
2021/08/29 23:14:31;;;;;;;0.97;0.97;;;17.90;48.30;;;;;;10437265;28;20228;-75
2021/08/29 23:19:34;;;;;;;0.90;0.80;;;18.00;47.80;;;;;;10440807;28;20243;-75
2021/08/29 23:24:39;;;;;;;1.20;1.20;;;18.00;47.90;;;;;;10439916;28;20728;-75
2021/08/29 23:29:42;;;;;;;1.67;1.57;;;18.00;48.50;;;;;;10445417;28;20229;-75
2021/08/29 23:34:45;;;;;;;1.70;1.60;;;18.00;47.90;;;;;;10448200;28;20224;-75
2021/08/29 23:39:49;;;;;;;2.10;2.00;;;18.00;48.10;;;;;;10449039;28;20231;-75
2021/08/29 23:44:53;;;;;;;1.97;1.87;;;18.00;48.70;;;;;;10446728;28;20228;-75
2021/08/29 23:49:56;;;;;;;1.90;1.80;;;18.00;48.30;;;;;;10449423;28;20228;-75
2021/08/29 23:55:01;;;;;;;2.17;1.97;;;18.00;48.40;;;;;;10447424;28;20705;-75
